createdAt,value
2023-08-17T00:00:06.967Z,100247.77
2023-08-17T00:02:34.159Z,100249.42
2023-08-17T00:05:01.905Z,100249.59
2023-08-17T00:07:29.162Z,100253.55
2023-08-17T00:09:56.426Z,100253.31
2023-08-17T00:12:23.683Z,100248.77
2023-08-17T00:14:51.842Z,100244.42
2023-08-17T00:17:20.121Z,100250.14
2023-08-17T00:19:47.444Z,100251.77
2023-08-17T00:22:14.798Z,100250.85
2023-08-17T00:24:45.400Z,100251.84
2023-08-17T00:27:12.725Z,100250.33
2023-08-17T00:29:40.018Z,100253.02
2023-08-17T00:32:07.363Z,100254.75
2023-08-17T00:34:36.930Z,100254.55
2023-08-17T00:37:04.463Z,100256.47
2023-08-17T00:39:31.729Z,100256.16
2023-08-17T00:41:59.045Z,100254.61
2023-08-17T00:44:26.322Z,100256.59
2023-08-17T00:46:53.665Z,100255.63
2023-08-17T00:49:20.938Z,100253.50
2023-08-17T00:51:48.267Z,100250.20
2023-08-17T00:57:01.230Z,100269.67
2023-08-17T00:59:33.079Z,100272.72
2023-08-17T01:02:04.593Z,100273.01
2023-08-17T01:04:32.824Z,100268.86
2023-08-17T01:07:00.164Z,100265.23
2023-08-17T01:09:28.164Z,100266.08
2023-08-17T01:12:00.862Z,100264.55
2023-08-17T01:14:40.212Z,100263.34
2023-08-17T01:17:26.660Z,100263.75
2023-08-17T01:19:54.063Z,100267.91
2023-08-17T01:22:22.614Z,100264.04
2023-08-17T01:24:49.964Z,100264.56
2023-08-17T01:27:17.250Z,100260.17
2023-08-17T01:29:44.525Z,100257.55
2023-08-17T01:32:17.257Z,100259.54
2023-08-17T01:34:48.771Z,100257.85
2023-08-17T01:37:16.069Z,100260.22
2023-08-17T01:39:45.068Z,100254.90
2023-08-17T01:42:13.562Z,100256.71
2023-08-17T01:44:41.024Z,100251.42
2023-08-17T01:47:08.462Z,100248.92
2023-08-17T01:49:35.806Z,100250.27
2023-08-17T01:52:03.753Z,100252.81
2023-08-17T01:54:31.109Z,100252.16
2023-08-17T01:56:58.412Z,100253.33
2023-08-17T01:59:25.769Z,100255.16
2023-08-17T02:01:53.136Z,100257.64
2023-08-17T02:04:20.455Z,100256.19
2023-08-17T02:06:47.762Z,100254.73
2023-08-17T02:09:15.048Z,100251.27
2023-08-17T02:11:42.352Z,100250.63
2023-08-17T02:14:09.681Z,100248.47
2023-08-17T02:16:37.234Z,100251.58
2023-08-17T02:19:04.748Z,100252.09
2023-08-17T02:21:32.017Z,100253.27
2023-08-17T02:23:59.360Z,100253.48
2023-08-17T02:26:26.648Z,100252.98
2023-08-17T02:28:53.932Z,100251.85
2023-08-17T02:31:21.271Z,100248.56
2023-08-17T02:33:48.960Z,100250.61
2023-08-17T02:36:16.262Z,100252.83
2023-08-17T02:38:43.781Z,100251.84
2023-08-17T02:41:11.063Z,100252.11
2023-08-17T02:43:38.359Z,100248.81
2023-08-17T02:46:08.260Z,100251.59
2023-08-17T02:48:35.761Z,100255.42
2023-08-17T02:51:04.155Z,100254.70
2023-08-17T02:53:31.528Z,100255.36
2023-08-17T02:55:58.865Z,100254.70
2023-08-17T02:58:26.355Z,100256.64
2023-08-17T03:00:54.894Z,100258.41
2023-08-17T03:03:22.253Z,100257.95
2023-08-17T03:05:50.800Z,100262.72
2023-08-17T03:08:18.139Z,100258.19
2023-08-17T03:10:45.414Z,100253.83
2023-08-17T03:13:12.736Z,100252.73
2023-08-17T03:15:41.399Z,100256.33
2023-08-17T03:18:09.487Z,100256.34
2023-08-17T03:20:38.043Z,100255.08
2023-08-17T03:23:09.440Z,100254.20
2023-08-17T03:25:38.836Z,100253.23
2023-08-17T03:28:07.667Z,100251.15
2023-08-17T03:30:35.556Z,100254.06
2023-08-17T03:33:02.963Z,100253.91
2023-08-17T03:35:31.067Z,100253.28
2023-08-17T03:37:58.319Z,100253.27
2023-08-17T03:40:25.611Z,100256.53
2023-08-17T03:42:52.968Z,100254.71
2023-08-17T03:45:20.559Z,100251.80
2023-08-17T03:47:50.381Z,100252.27
2023-08-17T03:50:18.032Z,100250.98
2023-08-17T03:52:45.300Z,100247.95
2023-08-17T03:55:15.372Z,100249.74
2023-08-17T03:57:42.806Z,100247.50
2023-08-17T04:00:11.469Z,100247.48
2023-08-17T04:02:41.950Z,100248.20
2023-08-17T04:05:10.335Z,100247.32
2023-08-17T04:07:38.197Z,100244.15
2023-08-17T04:10:09.344Z,100245.45
2023-08-17T04:12:36.661Z,100245.34
2023-08-17T04:15:04.719Z,100247.88
2023-08-17T04:17:32.160Z,100246.78
2023-08-17T04:20:00.173Z,100247.13
2023-08-17T04:22:28.005Z,100245.93
2023-08-17T04:24:55.376Z,100246.55
2023-08-17T04:27:23.149Z,100247.23
2023-08-17T04:29:50.448Z,100243.93
2023-08-17T04:32:17.879Z,100250.63
2023-08-17T04:34:46.398Z,100247.63
2023-08-17T04:37:15.703Z,100247.98
2023-08-17T04:39:44.502Z,100250.11
2023-08-17T04:42:13.869Z,100252.92
2023-08-17T04:44:41.182Z,100256.83
2023-08-17T04:47:08.803Z,100262.12
2023-08-17T04:49:36.183Z,100263.59
2023-08-17T04:52:03.846Z,100265.77
2023-08-17T04:54:31.333Z,100269.55
2023-08-17T04:56:58.974Z,100268.98
2023-08-17T04:59:26.239Z,100268.02
2023-08-17T05:01:55.898Z,100272.17
2023-08-17T05:04:23.461Z,100273.00
2023-08-17T05:06:50.938Z,100278.27
2023-08-17T05:09:18.344Z,100280.59
2023-08-17T05:11:46.528Z,100279.66
2023-08-17T05:14:13.876Z,100282.16
2023-08-17T05:16:41.283Z,100278.80
2023-08-17T05:19:08.642Z,100284.38
2023-08-17T05:21:36.288Z,100282.02
2023-08-17T05:24:04.508Z,100288.08
2023-08-17T05:26:32.851Z,100287.77
2023-08-17T05:29:01.353Z,100286.35
2023-08-17T05:31:28.794Z,100290.17
2023-08-17T05:33:56.547Z,100289.41
2023-08-17T05:36:25.130Z,100292.89
2023-08-17T05:38:53.051Z,100290.64
2023-08-17T05:41:20.383Z,100294.14
2023-08-17T05:43:49.783Z,100295.79
2023-08-17T05:46:17.134Z,100293.19
2023-08-17T05:48:44.488Z,100297.66
2023-08-17T05:51:11.974Z,100300.11
2023-08-17T05:53:39.262Z,100305.73
2023-08-17T05:56:06.563Z,100305.33
2023-08-17T05:58:33.895Z,100307.77
2023-08-17T06:01:08.765Z,100312.81
2023-08-17T06:03:37.233Z,100312.54
2023-08-17T06:06:05.227Z,100310.52
2023-08-17T06:08:32.589Z,100309.42
2023-08-17T06:10:59.912Z,100311.95
2023-08-17T06:13:27.204Z,100313.91
2023-08-17T06:15:57.802Z,100313.67
2023-08-17T06:18:26.224Z,100314.60
2023-08-17T06:20:54.930Z,100312.09
2023-08-17T06:23:22.513Z,100309.14
2023-08-17T06:25:49.876Z,100309.94
2023-08-17T06:28:17.229Z,100313.85
2023-08-17T06:30:44.539Z,100314.55
2023-08-17T06:33:11.915Z,100314.23
2023-08-17T06:35:39.265Z,100318.42
2023-08-17T06:38:07.636Z,100320.96
2023-08-17T06:40:34.935Z,100325.95
2023-08-17T06:43:02.270Z,100330.81
2023-08-17T06:45:29.602Z,100332.67
2023-08-17T06:47:56.912Z,100329.36
2023-08-17T06:50:24.285Z,100333.47
2023-08-17T06:52:51.696Z,100335.27
2023-08-17T06:55:19.293Z,100335.98
2023-08-17T06:57:46.907Z,100336.84
2023-08-17T07:00:15.002Z,100333.94
2023-08-17T07:02:53.303Z,100338.05
2023-08-17T07:05:21.745Z,100339.83
2023-08-17T07:07:49.264Z,100339.93
2023-08-17T07:10:16.619Z,100335.96
2023-08-17T07:12:44.107Z,100336.30
2023-08-17T07:15:11.668Z,100339.43
2023-08-17T07:17:38.983Z,100338.73
2023-08-17T07:20:16.447Z,100337.06
2023-08-17T07:22:44.859Z,100339.70
2023-08-17T07:25:12.215Z,100339.60
2023-08-17T07:27:39.473Z,100337.30
2023-08-17T07:30:08.925Z,100343.47
2023-08-17T07:32:36.334Z,100345.00
2023-08-17T07:35:04.623Z,100346.61
2023-08-17T07:37:35.332Z,100348.38
2023-08-17T07:40:04.941Z,100356.02
2023-08-17T07:42:32.644Z,100357.04
2023-08-17T07:45:00.308Z,100358.60
2023-08-17T07:47:28.303Z,100356.31
2023-08-17T07:49:55.925Z,100363.91
2023-08-17T07:52:23.291Z,100363.05
2023-08-17T07:54:50.614Z,100366.46
2023-08-17T07:57:17.999Z,100369.98
2023-08-17T07:59:45.549Z,100373.83
2023-08-17T08:02:12.883Z,100376.85
2023-08-17T08:04:40.245Z,100373.99
2023-08-17T08:07:07.548Z,100370.80
2023-08-17T08:09:34.853Z,100370.09
2023-08-17T08:12:02.963Z,100370.21
2023-08-17T08:14:30.763Z,100368.23
2023-08-17T08:16:58.096Z,100370.02
2023-08-17T08:19:25.414Z,100373.18
2023-08-17T08:21:52.733Z,100373.83
2023-08-17T08:24:36.568Z,100375.16
2023-08-17T08:27:05.719Z,100371.17
2023-08-17T08:29:33.074Z,100377.02
2023-08-17T08:32:01.007Z,100374.95
2023-08-17T08:34:28.543Z,100371.70
2023-08-17T08:36:56.079Z,100374.92
2023-08-17T08:39:23.467Z,100373.27
2023-08-17T08:41:50.761Z,100375.64
2023-08-17T08:44:18.161Z,100376.00
2023-08-17T08:46:45.785Z,100374.44
2023-08-17T08:49:13.446Z,100373.27
2023-08-17T08:51:43.950Z,100373.06
2023-08-17T08:54:14.396Z,100376.73
2023-08-17T08:56:47.763Z,100375.71
2023-08-17T08:59:16.636Z,100376.98
2023-08-17T09:01:44.023Z,100377.61
2023-08-17T09:04:11.468Z,100379.25
2023-08-17T09:06:38.931Z,100379.83
2023-08-17T09:09:06.192Z,100379.90
2023-08-17T09:11:33.604Z,100383.98
2023-08-17T09:14:00.939Z,100383.33
2023-08-17T09:16:28.674Z,100388.15
2023-08-17T09:18:56.098Z,100382.21
2023-08-17T09:21:24.361Z,100381.71
2023-08-17T09:26:25.709Z,100382.95
2023-08-17T09:28:55.285Z,100384.83
2023-08-17T09:31:22.839Z,100384.84
2023-08-17T09:33:53.680Z,100384.01
2023-08-17T09:36:25.739Z,100381.27
2023-08-17T09:38:53.156Z,100382.13
2023-08-17T09:41:20.466Z,100380.98
2023-08-17T09:43:48.330Z,100382.32
2023-08-17T09:46:15.973Z,100379.64
2023-08-17T09:48:46.790Z,100378.98
2023-08-17T09:51:17.267Z,100373.80
2023-08-17T09:53:44.610Z,100376.48
2023-08-17T09:56:17.547Z,100367.42
2023-08-17T09:58:45.552Z,100363.29
2023-08-17T10:01:14.712Z,100357.46
2023-08-17T10:03:48.064Z,100359.81
2023-08-17T10:06:16.453Z,100358.38
2023-08-17T10:08:45.073Z,100353.44
2023-08-17T10:11:13.233Z,100352.11
2023-08-17T10:13:46.371Z,100353.12
2023-08-17T10:16:46.748Z,100355.02
2023-08-17T10:19:14.139Z,100351.50
2023-08-17T10:21:45.430Z,100347.48
2023-08-17T10:24:12.721Z,100350.48
2023-08-17T10:26:40.280Z,100354.08
2023-08-17T10:29:15.286Z,100348.71
2023-08-17T10:31:47.864Z,100348.56
2023-08-17T10:34:16.225Z,100347.00
2023-08-17T10:36:43.588Z,100346.63
2023-08-17T10:39:28.265Z,100345.58
2023-08-17T10:41:57.468Z,100344.89
2023-08-17T10:44:46.867Z,100341.43
2023-08-17T10:50:05.407Z,100336.90
2023-08-17T10:52:35.556Z,100336.67
2023-08-17T10:55:06.424Z,100334.27
2023-08-17T10:57:38.182Z,100332.55
2023-08-17T11:00:21.144Z,100329.86
2023-08-17T11:03:06.940Z,100324.06
2023-08-17T11:05:49.531Z,100323.87
2023-08-17T11:08:23.826Z,100325.28
2023-08-17T11:11:04.304Z,100324.05
2023-08-17T11:13:32.832Z,100318.40
2023-08-17T11:16:03.382Z,100316.96
2023-08-17T11:18:34.362Z,100317.36
2023-08-17T11:21:05.551Z,100316.09
2023-08-17T11:23:34.730Z,100312.21
2023-08-17T11:26:02.417Z,100312.32
2023-08-17T11:28:43.264Z,100306.40
2023-08-17T11:31:12.343Z,100309.80
2023-08-17T11:33:40.102Z,100311.15
2023-08-17T11:36:08.776Z,100308.61
2023-08-17T11:38:38.996Z,100309.94
2023-08-17T11:41:07.136Z,100308.67
2023-08-17T11:43:35.157Z,100304.02
2023-08-17T11:46:02.811Z,100299.50
2023-08-17T11:51:03.809Z,100293.17
2023-08-17T11:53:35.889Z,100290.55
2023-08-17T11:56:05.967Z,100289.13
2023-08-17T11:58:45.676Z,100287.05
2023-08-17T12:01:13.945Z,100283.90
2023-08-17T12:03:44.679Z,100277.40
2023-08-17T12:06:14.658Z,100282.05
2023-08-17T12:08:47.672Z,100280.64
2023-08-17T12:11:19.606Z,100274.25
2023-08-17T12:13:54.703Z,100275.64
2023-08-17T12:16:22.877Z,100278.64
2023-08-17T12:18:51.201Z,100278.06
2023-08-17T12:21:21.719Z,100276.10
2023-08-17T12:23:49.348Z,100272.35
2023-08-17T12:26:21.237Z,100274.39
2023-08-17T12:28:48.873Z,100272.34
2023-08-17T12:31:21.668Z,100269.95
2023-08-17T12:33:49.016Z,100266.23
2023-08-17T12:36:16.308Z,100268.14
2023-08-17T12:38:46.190Z,100266.01
2023-08-17T12:41:13.611Z,100266.88
2023-08-17T12:43:40.904Z,100263.80
2023-08-17T12:46:08.295Z,100264.84
2023-08-17T12:48:36.498Z,100263.88
2023-08-17T12:51:05.436Z,100265.61
2023-08-17T12:53:33.216Z,100261.05
2023-08-17T12:56:00.637Z,100263.02
2023-08-17T12:58:27.966Z,100257.83
2023-08-17T13:00:58.295Z,100251.64
2023-08-17T13:03:25.692Z,100250.88
2023-08-17T13:05:53.083Z,100248.34
2023-08-17T13:08:20.474Z,100247.95
2023-08-17T13:10:47.814Z,100243.42
2023-08-17T13:14:02.862Z,100298.19
2023-08-17T13:16:30.268Z,100291.61
2023-08-17T13:18:57.582Z,100284.15
2023-08-17T13:21:24.882Z,100282.11
2023-08-17T13:23:52.232Z,100273.02
2023-08-17T13:26:19.541Z,100274.30
2023-08-17T13:28:46.880Z,100266.27
2023-08-17T13:31:23.859Z,100263.73
2023-08-17T13:33:52.617Z,100263.33
2023-08-17T13:36:20.140Z,100260.94
2023-08-17T13:38:47.499Z,100259.07
2023-08-17T13:41:14.826Z,100257.77
2023-08-17T13:43:42.317Z,100257.88
2023-08-17T13:46:09.720Z,100263.25
2023-08-17T13:48:37.143Z,100263.27
2023-08-17T13:51:04.512Z,100260.95
2023-08-17T13:53:31.913Z,100258.52
2023-08-17T13:55:59.241Z,100255.48
2023-08-17T13:58:26.518Z,100255.59
2023-08-17T14:00:53.848Z,100254.89
2023-08-17T14:03:21.225Z,100249.79
2023-08-17T14:05:48.737Z,100251.07
2023-08-17T14:08:16.003Z,100256.72
2023-08-17T14:10:43.367Z,100251.52
2023-08-17T14:13:10.659Z,100250.69
2023-08-17T14:15:37.985Z,100250.30
2023-08-17T14:18:06.018Z,100250.27
2023-08-17T14:27:35.282Z,100292.77
2023-08-17T14:30:03.480Z,100284.64
2023-08-17T14:32:35.378Z,100282.15
2023-08-17T14:35:03.220Z,100273.80
2023-08-17T14:37:30.800Z,100266.88
2023-08-17T14:39:58.494Z,100265.64
2023-08-17T14:42:27.071Z,100259.23
2023-08-17T14:44:54.597Z,100256.88
2023-08-17T14:47:21.973Z,100254.01
2023-08-17T14:49:49.360Z,100250.59
2023-08-17T14:52:16.701Z,100256.42
2023-08-17T14:54:43.988Z,100254.34
2023-08-17T14:57:11.337Z,100250.54
2023-08-17T14:59:38.726Z,100246.60
2023-08-17T15:02:06.105Z,100245.92
2023-08-17T15:04:34.304Z,100244.84
2023-08-17T15:07:01.596Z,100244.28
2023-08-17T15:09:28.888Z,100244.03
2023-08-17T15:11:56.188Z,100243.36
2023-08-17T15:14:23.498Z,100236.83
2023-08-17T15:16:50.814Z,100235.64
2023-08-17T15:19:30.625Z,100237.53
2023-08-17T15:22:05.435Z,100235.75
2023-08-17T15:24:32.797Z,100234.64
2023-08-17T15:27:00.079Z,100238.69
2023-08-17T15:29:27.366Z,100237.34
2023-08-17T15:31:54.691Z,100240.16
2023-08-17T15:34:22.006Z,100242.22
2023-08-17T15:36:49.320Z,100242.45
2023-08-17T15:39:16.700Z,100241.22
2023-08-17T15:41:44.000Z,100237.69
2023-08-17T15:44:11.277Z,100239.23
2023-08-17T15:46:38.721Z,100238.02
2023-08-17T15:49:06.830Z,100238.28
2023-08-17T15:51:34.083Z,100232.52
2023-08-17T15:54:01.437Z,100236.27
2023-08-17T15:56:28.727Z,100237.04
2023-08-17T15:58:56.052Z,100239.67
2023-08-17T16:01:23.384Z,100241.84
2023-08-17T16:03:50.763Z,100243.36
2023-08-17T16:06:18.084Z,100243.42
2023-08-17T16:11:15.667Z,100250.13
2023-08-17T16:13:46.360Z,100251.39
2023-08-17T16:16:14.440Z,100248.02
2023-08-17T16:18:41.785Z,100249.48
2023-08-17T16:21:14.371Z,100246.48
2023-08-17T16:23:45.303Z,100251.02
2023-08-17T16:26:12.652Z,100251.12
2023-08-17T16:28:39.916Z,100252.35
2023-08-17T16:31:07.312Z,100256.39
2023-08-17T16:33:34.611Z,100257.14
2023-08-17T16:36:02.056Z,100262.09
2023-08-17T16:38:29.341Z,100259.87
2023-08-17T16:40:56.622Z,100259.72
2023-08-17T16:43:24.147Z,100261.05
2023-08-17T16:45:51.590Z,100262.18
2023-08-17T16:50:51.508Z,100264.23
2023-08-17T16:53:18.833Z,100267.36
2023-08-17T16:55:54.152Z,100265.69
2023-08-17T16:58:22.654Z,100268.91
2023-08-17T17:00:49.976Z,100268.00
2023-08-17T17:03:17.266Z,100269.53
2023-08-17T17:05:44.670Z,100271.40
2023-08-17T17:08:12.061Z,100273.48
2023-08-17T17:10:39.333Z,100275.83
2023-08-17T17:13:06.655Z,100275.34
2023-08-17T17:15:34.025Z,100278.81
2023-08-17T17:18:01.515Z,100276.69
2023-08-17T17:20:28.939Z,100283.01
2023-08-17T17:22:56.588Z,100282.67
2023-08-17T17:25:23.963Z,100285.79
2023-08-17T17:27:51.298Z,100284.00
2023-08-17T17:30:18.636Z,100290.88
2023-08-17T17:32:45.973Z,100294.24
2023-08-17T17:35:13.339Z,100291.60
2023-08-17T17:37:40.606Z,100294.74
2023-08-17T17:40:10.198Z,100302.55
2023-08-17T17:42:37.525Z,100306.91
2023-08-17T17:45:05.228Z,100309.67
2023-08-17T17:47:36.001Z,100309.29
2023-08-17T17:50:07.853Z,100314.94
2023-08-17T17:52:35.328Z,100319.58
2023-08-17T17:55:03.807Z,100316.89
2023-08-17T17:57:31.434Z,100321.17
2023-08-17T17:59:59.214Z,100321.29
2023-08-17T18:02:27.112Z,100321.11
2023-08-17T18:04:54.445Z,100317.48
2023-08-17T18:07:21.710Z,100320.14
2023-08-17T18:09:49.021Z,100324.48
2023-08-17T18:12:16.303Z,100321.94
2023-08-17T18:14:45.051Z,100324.20
2023-08-17T18:17:12.364Z,100326.83
2023-08-17T18:19:41.144Z,100326.48
2023-08-17T18:22:08.882Z,100325.40
2023-08-17T18:24:36.243Z,100321.48
2023-08-17T18:27:03.574Z,100324.09
2023-08-17T18:29:30.954Z,100323.56
2023-08-17T18:31:58.300Z,100321.29
2023-08-17T18:34:25.646Z,100327.41
2023-08-17T18:36:52.937Z,100323.60
2023-08-17T18:39:20.263Z,100321.52
2023-08-17T18:41:47.534Z,100322.49
2023-08-17T18:44:14.817Z,100318.45
2023-08-17T18:46:42.112Z,100319.66
2023-08-17T18:49:09.515Z,100319.23
2023-08-17T18:51:36.822Z,100319.77
2023-08-17T18:54:04.720Z,100317.55
2023-08-17T18:56:32.224Z,100313.67
2023-08-17T18:58:59.900Z,100312.41
2023-08-17T19:01:27.273Z,100309.48
2023-08-17T19:03:54.656Z,100312.89
2023-08-17T19:06:22.032Z,100313.83
2023-08-17T19:08:49.375Z,100308.21
2023-08-17T19:11:17.221Z,100307.95
2023-08-17T19:13:44.547Z,100304.92
2023-08-17T19:16:11.902Z,100306.04
2023-08-17T19:18:46.271Z,100307.55
2023-08-17T19:21:13.687Z,100304.58
2023-08-17T19:23:41.124Z,100306.36
2023-08-17T19:26:10.120Z,100309.58
2023-08-17T19:28:37.853Z,100308.13
2023-08-17T19:31:05.143Z,100307.80
2023-08-17T19:33:32.600Z,100309.61
2023-08-17T19:35:59.932Z,100306.30
2023-08-17T19:38:27.202Z,100304.50
2023-08-17T19:40:54.541Z,100307.81
2023-08-17T19:43:21.864Z,100305.27
2023-08-17T19:45:50.275Z,100305.48
2023-08-17T19:48:18.857Z,100304.37
2023-08-17T19:50:46.338Z,100301.31
2023-08-17T19:53:13.717Z,100297.95
2023-08-17T19:55:41.072Z,100299.71
2023-08-17T19:58:08.477Z,100296.02
2023-08-17T20:00:37.691Z,100298.70
2023-08-17T20:03:05.913Z,100293.58
2023-08-17T20:05:33.380Z,100291.31
2023-08-17T20:08:00.655Z,100287.29
2023-08-17T20:10:27.961Z,100288.33
2023-08-17T20:12:55.334Z,100285.20
2023-08-17T20:15:23.113Z,100285.63
2023-08-17T20:17:50.476Z,100285.73
2023-08-17T20:20:18.057Z,100287.72
2023-08-17T20:22:45.478Z,100285.55
2023-08-17T20:25:13.946Z,100286.63
2023-08-17T20:27:44.647Z,100286.79
2023-08-17T20:30:13.131Z,100289.38
2023-08-17T20:32:40.466Z,100290.48
2023-08-17T20:35:08.889Z,100292.70
2023-08-17T20:37:36.527Z,100291.85
2023-08-17T20:40:05.756Z,100292.23
2023-08-17T20:42:33.380Z,100290.19
2023-08-17T20:45:00.762Z,100289.30
2023-08-17T20:47:28.262Z,100289.33
2023-08-17T20:49:59.459Z,100289.77
2023-08-17T20:52:26.854Z,100293.45
2023-08-17T20:54:54.171Z,100294.55
2023-08-17T20:57:22.398Z,100290.73
2023-08-17T20:59:49.726Z,100288.59
2023-08-17T21:02:17.168Z,100289.19
2023-08-17T21:04:44.596Z,100289.81
2023-08-17T21:07:14.613Z,100295.95
2023-08-17T21:09:42.670Z,100292.94
2023-08-17T21:12:10.624Z,100296.50
2023-08-17T21:14:37.966Z,100292.98
2023-08-17T21:17:05.291Z,100292.86
2023-08-17T21:19:33.252Z,100288.77
2023-08-17T21:22:00.951Z,100286.64
2023-08-17T21:24:28.282Z,100283.98
2023-08-17T21:26:55.636Z,100284.59
2023-08-17T21:29:24.265Z,100284.41
2023-08-17T21:31:52.859Z,100279.67
2023-08-17T21:34:21.020Z,100281.73
2023-08-17T21:36:48.664Z,100284.64
2023-08-17T21:39:16.059Z,100283.24
2023-08-17T21:41:47.523Z,100283.16
2023-08-17T21:44:14.780Z,100283.48
2023-08-17T21:46:42.178Z,100284.35
2023-08-17T21:49:09.570Z,100278.48
2023-08-17T21:51:37.021Z,100277.33
2023-08-17T21:54:06.182Z,100275.06
2023-08-17T21:56:35.869Z,100270.60
2023-08-17T21:59:04.588Z,100268.08
2023-08-17T22:01:32.242Z,100268.26
2023-08-17T22:03:59.708Z,100266.88
2023-08-17T22:06:27.500Z,100265.48
2023-08-17T22:08:54.989Z,100262.33
2023-08-17T22:11:22.414Z,100264.52
2023-08-17T22:13:49.699Z,100267.18
2023-08-17T22:16:17.227Z,100267.73
2023-08-17T22:18:44.736Z,100264.20
2023-08-17T22:21:12.027Z,100263.80
2023-08-17T22:23:39.312Z,100262.43
2023-08-17T22:26:08.218Z,100267.92
2023-08-17T22:28:35.736Z,100267.55
2023-08-17T22:31:04.853Z,100269.36
2023-08-17T22:33:32.305Z,100267.30
2023-08-17T22:35:59.586Z,100268.73
2023-08-17T22:38:27.145Z,100261.38
2023-08-17T22:40:54.474Z,100264.57
2023-08-17T22:43:21.826Z,100266.86
2023-08-17T22:45:49.845Z,100265.17
2023-08-17T22:48:17.873Z,100268.59
2023-08-17T22:50:46.047Z,100273.62
2023-08-17T22:53:13.354Z,100267.23
2023-08-17T22:55:40.983Z,100265.86
2023-08-17T22:58:08.654Z,100265.16
2023-08-17T23:00:37.127Z,100266.33
2023-08-17T23:03:04.752Z,100270.54
2023-08-17T23:05:32.218Z,100266.29
2023-08-17T23:07:59.547Z,100267.75
2023-08-17T23:10:27.776Z,100267.40
2023-08-17T23:12:55.023Z,100267.27
2023-08-17T23:15:22.408Z,100271.01
2023-08-17T23:17:49.845Z,100272.69
2023-08-17T23:20:17.471Z,100269.83
2023-08-17T23:22:44.753Z,100276.84
2023-08-17T23:25:12.114Z,100274.67
2023-08-17T23:27:39.930Z,100272.46
2023-08-17T23:30:08.045Z,100275.52
2023-08-17T23:32:35.477Z,100274.67
2023-08-17T23:35:02.905Z,100278.84
2023-08-17T23:37:30.870Z,100278.46
2023-08-17T23:39:58.670Z,100277.77
2023-08-17T23:42:25.937Z,100278.55
2023-08-17T23:44:53.179Z,100270.93
2023-08-17T23:47:20.619Z,100276.56
2023-08-17T23:49:47.929Z,100275.12
2023-08-17T23:52:15.261Z,100272.48
2023-08-17T23:54:42.600Z,100265.38
2023-08-17T23:57:09.880Z,100267.86
2023-08-17T23:59:37.447Z,100267.10
